sensor_id;sensor_type;location;lat;lon;timestamp;P1;durP1;ratioP1;P2;durP2;ratioP2
18899;SDS011;9582;52.018;6.306;2023-11-19T00:00:05;22.67;;;14.65;;
18899;SDS011;9582;52.018;6.306;2023-11-19T00:02:36;23.00;;;15.63;;
18899;SDS011;9582;52.018;6.306;2023-11-19T00:05:04;19.40;;;13.80;;
18899;SDS011;9582;52.018;6.306;2023-11-19T00:07:34;22.92;;;15.32;;
18899;SDS011;9582;52.018;6.306;2023-11-19T00:10:00;25.45;;;16.00;;
18899;SDS011;9582;52.018;6.306;2023-11-19T00:12:35;22.65;;;14.88;;
18899;SDS011;9582;52.018;6.306;2023-11-19T00:15:03;19.42;;;14.32;;
18899;SDS011;9582;52.018;6.306;2023-11-19T00:17:29;21.55;;;14.15;;
18899;SDS011;9582;52.018;6.306;2023-11-19T00:19:56;24.77;;;16.30;;
18899;SDS011;9582;52.018;6.306;2023-11-19T00:22:24;22.60;;;14.80;;
18899;SDS011;9582;52.018;6.306;2023-11-19T00:24:51;19.98;;;14.95;;
18899;SDS011;9582;52.018;6.306;2023-11-19T00:27:17;17.50;;;13.32;;
18899;SDS011;9582;52.018;6.306;2023-11-19T00:29:44;21.00;;;15.30;;
18899;SDS011;9582;52.018;6.306;2023-11-19T00:32:11;18.50;;;13.50;;
18899;SDS011;9582;52.018;6.306;2023-11-19T00:34:38;21.23;;;14.27;;
18899;SDS011;9582;52.018;6.306;2023-11-19T00:37:05;20.08;;;13.25;;
18899;SDS011;9582;52.018;6.306;2023-11-19T00:39:33;17.88;;;12.85;;
18899;SDS011;9582;52.018;6.306;2023-11-19T00:41:59;20.98;;;14.23;;
18899;SDS011;9582;52.018;6.306;2023-11-19T00:44:26;16.40;;;11.55;;
18899;SDS011;9582;52.018;6.306;2023-11-19T00:46:52;19.25;;;12.90;;
18899;SDS011;9582;52.018;6.306;2023-11-19T00:49:19;18.92;;;13.30;;
18899;SDS011;9582;52.018;6.306;2023-11-19T00:51:45;20.60;;;13.80;;
18899;SDS011;9582;52.018;6.306;2023-11-19T00:54:12;18.63;;;12.38;;
18899;SDS011;9582;52.018;6.306;2023-11-19T00:56:40;19.02;;;12.05;;
18899;SDS011;9582;52.018;6.306;2023-11-19T00:59:06;19.30;;;12.63;;
18899;SDS011;9582;52.018;6.306;2023-11-19T01:01:33;18.38;;;12.45;;
18899;SDS011;9582;52.018;6.306;2023-11-19T01:03:59;17.58;;;11.75;;
18899;SDS011;9582;52.018;6.306;2023-11-19T01:06:27;20.40;;;11.93;;
18899;SDS011;9582;52.018;6.306;2023-11-19T01:08:53;19.88;;;11.93;;
18899;SDS011;9582;52.018;6.306;2023-11-19T01:11:22;18.45;;;10.52;;
18899;SDS011;9582;52.018;6.306;2023-11-19T01:13:50;18.25;;;11.13;;
18899;SDS011;9582;52.018;6.306;2023-11-19T01:16:18;18.23;;;10.75;;
18899;SDS011;9582;52.018;6.306;2023-11-19T01:18:46;16.63;;;10.25;;
18899;SDS011;9582;52.018;6.306;2023-11-19T01:21:13;20.50;;;10.10;;
18899;SDS011;9582;52.018;6.306;2023-11-19T01:23:40;16.83;;;10.55;;
18899;SDS011;9582;52.018;6.306;2023-11-19T01:26:08;14.35;;;8.40;;
18899;SDS011;9582;52.018;6.306;2023-11-19T01:28:37;12.23;;;8.02;;
18899;SDS011;9582;52.018;6.306;2023-11-19T01:31:06;11.98;;;6.45;;
18899;SDS011;9582;52.018;6.306;2023-11-19T01:33:33;14.30;;;7.18;;
18899;SDS011;9582;52.018;6.306;2023-11-19T01:36:00;12.95;;;6.88;;
18899;SDS011;9582;52.018;6.306;2023-11-19T01:38:26;13.82;;;6.72;;
18899;SDS011;9582;52.018;6.306;2023-11-19T01:40:55;10.52;;;6.35;;
18899;SDS011;9582;52.018;6.306;2023-11-19T01:43:31;11.07;;;6.13;;
18899;SDS011;9582;52.018;6.306;2023-11-19T01:45:59;12.40;;;6.40;;
18899;SDS011;9582;52.018;6.306;2023-11-19T01:48:27;15.07;;;5.75;;
18899;SDS011;9582;52.018;6.306;2023-11-19T01:50:54;16.40;;;6.70;;
18899;SDS011;9582;52.018;6.306;2023-11-19T01:53:21;11.00;;;6.38;;
18899;SDS011;9582;52.018;6.306;2023-11-19T01:55:48;16.40;;;6.95;;
18899;SDS011;9582;52.018;6.306;2023-11-19T01:58:16;14.63;;;6.13;;
18899;SDS011;9582;52.018;6.306;2023-11-19T02:00:44;17.25;;;7.10;;
18899;SDS011;9582;52.018;6.306;2023-11-19T02:03:11;16.77;;;6.70;;
18899;SDS011;9582;52.018;6.306;2023-11-19T02:05:40;16.95;;;7.15;;
18899;SDS011;9582;52.018;6.306;2023-11-19T02:08:07;15.75;;;6.43;;
18899;SDS011;9582;52.018;6.306;2023-11-19T02:10:33;12.40;;;6.60;;
18899;SDS011;9582;52.018;6.306;2023-11-19T02:13:00;17.70;;;6.97;;
18899;SDS011;9582;52.018;6.306;2023-11-19T02:15:27;15.40;;;6.13;;
18899;SDS011;9582;52.018;6.306;2023-11-19T02:17:54;19.02;;;5.75;;
18899;SDS011;9582;52.018;6.306;2023-11-19T02:20:20;12.27;;;5.50;;
18899;SDS011;9582;52.018;6.306;2023-11-19T02:22:48;15.20;;;5.82;;
18899;SDS011;9582;52.018;6.306;2023-11-19T02:25:17;20.58;;;6.20;;
18899;SDS011;9582;52.018;6.306;2023-11-19T02:27:53;18.98;;;5.70;;
18899;SDS011;9582;52.018;6.306;2023-11-19T02:30:23;18.58;;;5.72;;
18899;SDS011;9582;52.018;6.306;2023-11-19T02:32:51;19.05;;;6.03;;
18899;SDS011;9582;52.018;6.306;2023-11-19T02:35:19;16.83;;;5.65;;
18899;SDS011;9582;52.018;6.306;2023-11-19T02:37:46;16.95;;;5.05;;
18899;SDS011;9582;52.018;6.306;2023-11-19T02:40:13;17.63;;;6.15;;
18899;SDS011;9582;52.018;6.306;2023-11-19T02:42:40;22.23;;;5.82;;
18899;SDS011;9582;52.018;6.306;2023-11-19T02:45:08;19.42;;;5.18;;
18899;SDS011;9582;52.018;6.306;2023-11-19T02:47:39;14.60;;;4.60;;
18899;SDS011;9582;52.018;6.306;2023-11-19T02:50:08;15.00;;;4.70;;
18899;SDS011;9582;52.018;6.306;2023-11-19T02:52:39;18.42;;;5.40;;
18899;SDS011;9582;52.018;6.306;2023-11-19T02:55:06;14.05;;;4.20;;
18899;SDS011;9582;52.018;6.306;2023-11-19T02:57:35;12.40;;;4.40;;
18899;SDS011;9582;52.018;6.306;2023-11-19T03:00:02;16.70;;;4.25;;
18899;SDS011;9582;52.018;6.306;2023-11-19T03:02:39;18.70;;;5.32;;
18899;SDS011;9582;52.018;6.306;2023-11-19T03:05:10;15.43;;;4.55;;
18899;SDS011;9582;52.018;6.306;2023-11-19T03:07:39;21.65;;;4.88;;
18899;SDS011;9582;52.018;6.306;2023-11-19T03:10:07;16.05;;;4.70;;
18899;SDS011;9582;52.018;6.306;2023-11-19T03:12:37;17.58;;;4.28;;
18899;SDS011;9582;52.018;6.306;2023-11-19T03:15:04;18.55;;;4.38;;
18899;SDS011;9582;52.018;6.306;2023-11-19T03:17:31;17.17;;;4.38;;
18899;SDS011;9582;52.018;6.306;2023-11-19T03:19:59;16.13;;;4.60;;
18899;SDS011;9582;52.018;6.306;2023-11-19T03:22:26;20.90;;;4.03;;
18899;SDS011;9582;52.018;6.306;2023-11-19T03:24:52;12.18;;;3.22;;
18899;SDS011;9582;52.018;6.306;2023-11-19T03:27:19;22.15;;;5.13;;
18899;SDS011;9582;52.018;6.306;2023-11-19T03:29:45;22.20;;;4.50;;
18899;SDS011;9582;52.018;6.306;2023-11-19T03:32:12;8.63;;;2.53;;
18899;SDS011;9582;52.018;6.306;2023-11-19T03:34:39;17.67;;;3.25;;
18899;SDS011;9582;52.018;6.306;2023-11-19T03:37:07;19.75;;;3.67;;
18899;SDS011;9582;52.018;6.306;2023-11-19T03:39:34;25.52;;;4.97;;
18899;SDS011;9582;52.018;6.306;2023-11-19T03:42:00;27.50;;;4.72;;
18899;SDS011;9582;52.018;6.306;2023-11-19T03:44:28;17.58;;;4.15;;
18899;SDS011;9582;52.018;6.306;2023-11-19T03:46:55;21.85;;;4.57;;
18899;SDS011;9582;52.018;6.306;2023-11-19T03:49:21;14.32;;;2.90;;
18899;SDS011;9582;52.018;6.306;2023-11-19T03:51:49;14.45;;;3.47;;
18899;SDS011;9582;52.018;6.306;2023-11-19T03:54:17;14.98;;;3.28;;
18899;SDS011;9582;52.018;6.306;2023-11-19T03:56:44;18.30;;;3.42;;
18899;SDS011;9582;52.018;6.306;2023-11-19T03:59:11;25.50;;;5.18;;
18899;SDS011;9582;52.018;6.306;2023-11-19T04:01:38;18.30;;;4.63;;
18899;SDS011;9582;52.018;6.306;2023-11-19T04:04:05;30.38;;;5.32;;
18899;SDS011;9582;52.018;6.306;2023-11-19T04:06:31;19.02;;;4.40;;
18899;SDS011;9582;52.018;6.306;2023-11-19T04:08:58;26.17;;;5.22;;
18899;SDS011;9582;52.018;6.306;2023-11-19T04:11:25;24.25;;;3.97;;
18899;SDS011;9582;52.018;6.306;2023-11-19T04:13:52;16.20;;;4.47;;
18899;SDS011;9582;52.018;6.306;2023-11-19T04:16:19;26.73;;;5.82;;
18899;SDS011;9582;52.018;6.306;2023-11-19T04:18:45;31.77;;;5.88;;
18899;SDS011;9582;52.018;6.306;2023-11-19T04:21:12;28.88;;;5.07;;
18899;SDS011;9582;52.018;6.306;2023-11-19T04:23:38;22.45;;;4.97;;
18899;SDS011;9582;52.018;6.306;2023-11-19T04:26:05;23.73;;;4.90;;
18899;SDS011;9582;52.018;6.306;2023-11-19T04:28:33;25.52;;;4.07;;
18899;SDS011;9582;52.018;6.306;2023-11-19T04:31:00;23.92;;;5.38;;
18899;SDS011;9582;52.018;6.306;2023-11-19T04:33:28;28.75;;;5.28;;
18899;SDS011;9582;52.018;6.306;2023-11-19T04:35:55;27.33;;;6.38;;
18899;SDS011;9582;52.018;6.306;2023-11-19T04:38:21;29.83;;;5.80;;
18899;SDS011;9582;52.018;6.306;2023-11-19T04:40:49;18.20;;;4.47;;
18899;SDS011;9582;52.018;6.306;2023-11-19T04:43:15;18.35;;;5.63;;
18899;SDS011;9582;52.018;6.306;2023-11-19T04:45:43;17.08;;;3.35;;
18899;SDS011;9582;52.018;6.306;2023-11-19T04:48:10;26.75;;;5.63;;
18899;SDS011;9582;52.018;6.306;2023-11-19T04:50:37;19.80;;;5.43;;
18899;SDS011;9582;52.018;6.306;2023-11-19T04:53:04;23.67;;;5.57;;
18899;SDS011;9582;52.018;6.306;2023-11-19T04:55:30;20.00;;;3.78;;
18899;SDS011;9582;52.018;6.306;2023-11-19T04:57:57;20.23;;;4.30;;
18899;SDS011;9582;52.018;6.306;2023-11-19T05:00:24;22.40;;;5.38;;
18899;SDS011;9582;52.018;6.306;2023-11-19T05:02:52;23.48;;;4.80;;
18899;SDS011;9582;52.018;6.306;2023-11-19T05:05:18;24.30;;;4.80;;
18899;SDS011;9582;52.018;6.306;2023-11-19T05:07:45;26.38;;;5.30;;
18899;SDS011;9582;52.018;6.306;2023-11-19T05:10:12;12.20;;;2.45;;
18899;SDS011;9582;52.018;6.306;2023-11-19T05:12:38;24.27;;;4.40;;
18899;SDS011;9582;52.018;6.306;2023-11-19T05:15:06;26.75;;;4.80;;
18899;SDS011;9582;52.018;6.306;2023-11-19T05:17:33;20.92;;;4.45;;
18899;SDS011;9582;52.018;6.306;2023-11-19T05:20:01;26.50;;;4.95;;
18899;SDS011;9582;52.018;6.306;2023-11-19T05:22:27;19.60;;;4.07;;
18899;SDS011;9582;52.018;6.306;2023-11-19T05:24:54;19.40;;;4.93;;
18899;SDS011;9582;52.018;6.306;2023-11-19T05:27:21;23.85;;;4.90;;
18899;SDS011;9582;52.018;6.306;2023-11-19T05:29:48;25.58;;;5.00;;
18899;SDS011;9582;52.018;6.306;2023-11-19T05:32:15;18.83;;;5.03;;
18899;SDS011;9582;52.018;6.306;2023-11-19T05:34:41;29.38;;;5.05;;
18899;SDS011;9582;52.018;6.306;2023-11-19T05:37:09;17.95;;;4.95;;
18899;SDS011;9582;52.018;6.306;2023-11-19T05:39:36;15.77;;;4.93;;
18899;SDS011;9582;52.018;6.306;2023-11-19T05:42:02;28.77;;;5.10;;
18899;SDS011;9582;52.018;6.306;2023-11-19T05:44:29;25.48;;;5.13;;
18899;SDS011;9582;52.018;6.306;2023-11-19T05:46:56;31.73;;;5.68;;
18899;SDS011;9582;52.018;6.306;2023-11-19T05:49:22;26.13;;;5.53;;
18899;SDS011;9582;52.018;6.306;2023-11-19T05:51:49;29.75;;;4.88;;
18899;SDS011;9582;52.018;6.306;2023-11-19T05:54:17;23.40;;;4.80;;
18899;SDS011;9582;52.018;6.306;2023-11-19T05:56:47;25.60;;;4.97;;
18899;SDS011;9582;52.018;6.306;2023-11-19T05:59:13;20.77;;;4.85;;
18899;SDS011;9582;52.018;6.306;2023-11-19T06:01:42;23.67;;;4.85;;
18899;SDS011;9582;52.018;6.306;2023-11-19T06:04:09;27.83;;;4.85;;
18899;SDS011;9582;52.018;6.306;2023-11-19T06:06:36;24.02;;;4.20;;
18899;SDS011;9582;52.018;6.306;2023-11-19T06:09:02;23.52;;;4.28;;
18899;SDS011;9582;52.018;6.306;2023-11-19T06:11:33;25.02;;;4.82;;
18899;SDS011;9582;52.018;6.306;2023-11-19T06:14:01;27.23;;;6.30;;
18899;SDS011;9582;52.018;6.306;2023-11-19T06:16:29;28.00;;;5.28;;
18899;SDS011;9582;52.018;6.306;2023-11-19T06:18:55;24.75;;;4.72;;
18899;SDS011;9582;52.018;6.306;2023-11-19T06:21:22;27.60;;;5.65;;
18899;SDS011;9582;52.018;6.306;2023-11-19T06:23:48;27.92;;;5.50;;
18899;SDS011;9582;52.018;6.306;2023-11-19T06:26:16;25.88;;;5.25;;
18899;SDS011;9582;52.018;6.306;2023-11-19T06:28:44;28.60;;;4.68;;
18899;SDS011;9582;52.018;6.306;2023-11-19T06:31:11;21.30;;;4.57;;
18899;SDS011;9582;52.018;6.306;2023-11-19T06:33:41;24.55;;;5.18;;
18899;SDS011;9582;52.018;6.306;2023-11-19T06:36:08;21.17;;;4.07;;
18899;SDS011;9582;52.018;6.306;2023-11-19T06:38:34;29.35;;;5.60;;
18899;SDS011;9582;52.018;6.306;2023-11-19T06:41:01;19.88;;;4.10;;
18899;SDS011;9582;52.018;6.306;2023-11-19T06:43:27;25.05;;;5.53;;
18899;SDS011;9582;52.018;6.306;2023-11-19T06:45:55;24.73;;;5.47;;
18899;SDS011;9582;52.018;6.306;2023-11-19T06:48:22;26.00;;;6.38;;
18899;SDS011;9582;52.018;6.306;2023-11-19T06:50:48;27.27;;;5.30;;
18899;SDS011;9582;52.018;6.306;2023-11-19T06:53:15;29.50;;;5.38;;
18899;SDS011;9582;52.018;6.306;2023-11-19T06:55:41;22.05;;;4.78;;
18899;SDS011;9582;52.018;6.306;2023-11-19T06:58:08;23.48;;;5.00;;
18899;SDS011;9582;52.018;6.306;2023-11-19T07:00:34;26.17;;;4.38;;
18899;SDS011;9582;52.018;6.306;2023-11-19T07:03:02;21.85;;;4.05;;
18899;SDS011;9582;52.018;6.306;2023-11-19T07:05:29;30.48;;;5.35;;
18899;SDS011;9582;52.018;6.306;2023-11-19T07:07:55;11.45;;;3.63;;
18899;SDS011;9582;52.018;6.306;2023-11-19T07:10:21;22.30;;;4.55;;
18899;SDS011;9582;52.018;6.306;2023-11-19T07:12:48;24.08;;;5.10;;
18899;SDS011;9582;52.018;6.306;2023-11-19T07:15:15;23.13;;;5.05;;
18899;SDS011;9582;52.018;6.306;2023-11-19T07:17:42;25.17;;;4.90;;
18899;SDS011;9582;52.018;6.306;2023-11-19T07:20:11;26.23;;;5.68;;
18899;SDS011;9582;52.018;6.306;2023-11-19T07:22:41;18.85;;;3.83;;
18899;SDS011;9582;52.018;6.306;2023-11-19T07:25:10;26.63;;;5.93;;
18899;SDS011;9582;52.018;6.306;2023-11-19T07:27:37;19.65;;;5.03;;
18899;SDS011;9582;52.018;6.306;2023-11-19T07:30:04;23.63;;;5.22;;
18899;SDS011;9582;52.018;6.306;2023-11-19T07:32:32;21.67;;;4.43;;
18899;SDS011;9582;52.018;6.306;2023-11-19T07:34:59;24.42;;;3.78;;
18899;SDS011;9582;52.018;6.306;2023-11-19T07:37:27;26.10;;;5.82;;
18899;SDS011;9582;52.018;6.306;2023-11-19T07:39:53;25.92;;;5.43;;
18899;SDS011;9582;52.018;6.306;2023-11-19T07:42:20;20.40;;;4.28;;
18899;SDS011;9582;52.018;6.306;2023-11-19T07:44:46;31.05;;;5.72;;
18899;SDS011;9582;52.018;6.306;2023-11-19T07:47:13;17.92;;;3.35;;
18899;SDS011;9582;52.018;6.306;2023-11-19T07:49:39;21.95;;;3.88;;
18899;SDS011;9582;52.018;6.306;2023-11-19T07:52:06;22.42;;;4.22;;
18899;SDS011;9582;52.018;6.306;2023-11-19T07:54:34;11.02;;;4.18;;
18899;SDS011;9582;52.018;6.306;2023-11-19T07:57:00;22.48;;;4.50;;
18899;SDS011;9582;52.018;6.306;2023-11-19T07:59:27;19.58;;;4.43;;
18899;SDS011;9582;52.018;6.306;2023-11-19T08:01:53;14.80;;;4.20;;
18899;SDS011;9582;52.018;6.306;2023-11-19T08:04:20;21.60;;;5.20;;
18899;SDS011;9582;52.018;6.306;2023-11-19T08:06:46;26.42;;;4.72;;
18899;SDS011;9582;52.018;6.306;2023-11-19T08:09:13;14.77;;;2.63;;
18899;SDS011;9582;52.018;6.306;2023-11-19T08:11:41;22.25;;;4.38;;
18899;SDS011;9582;52.018;6.306;2023-11-19T08:14:08;17.75;;;4.40;;
18899;SDS011;9582;52.018;6.306;2023-11-19T08:16:34;21.52;;;4.70;;
18899;SDS011;9582;52.018;6.306;2023-11-19T08:19:02;11.40;;;2.72;;
18899;SDS011;9582;52.018;6.306;2023-11-19T08:21:29;20.60;;;3.35;;
18899;SDS011;9582;52.018;6.306;2023-11-19T08:23:55;17.73;;;2.75;;
18899;SDS011;9582;52.018;6.306;2023-11-19T08:26:22;22.27;;;4.47;;
18899;SDS011;9582;52.018;6.306;2023-11-19T08:28:50;19.85;;;4.70;;
18899;SDS011;9582;52.018;6.306;2023-11-19T08:31:17;31.83;;;5.22;;
18899;SDS011;9582;52.018;6.306;2023-11-19T08:33:43;20.38;;;3.40;;
18899;SDS011;9582;52.018;6.306;2023-11-19T08:36:14;14.88;;;3.50;;
18899;SDS011;9582;52.018;6.306;2023-11-19T08:38:41;28.30;;;4.57;;
18899;SDS011;9582;52.018;6.306;2023-11-19T08:41:08;24.75;;;4.95;;
18899;SDS011;9582;52.018;6.306;2023-11-19T08:43:35;17.00;;;4.13;;
18899;SDS011;9582;52.018;6.306;2023-11-19T08:46:03;23.92;;;5.20;;
18899;SDS011;9582;52.018;6.306;2023-11-19T08:48:30;22.80;;;4.80;;
18899;SDS011;9582;52.018;6.306;2023-11-19T08:50:56;32.60;;;5.15;;
18899;SDS011;9582;52.018;6.306;2023-11-19T08:53:23;22.70;;;4.32;;
18899;SDS011;9582;52.018;6.306;2023-11-19T08:55:49;21.65;;;3.67;;
18899;SDS011;9582;52.018;6.306;2023-11-19T08:58:16;20.65;;;4.07;;
18899;SDS011;9582;52.018;6.306;2023-11-19T09:00:43;21.23;;;4.10;;
18899;SDS011;9582;52.018;6.306;2023-11-19T09:03:11;23.55;;;4.30;;
18899;SDS011;9582;52.018;6.306;2023-11-19T09:05:37;27.58;;;5.30;;
18899;SDS011;9582;52.018;6.306;2023-11-19T09:08:04;20.90;;;4.20;;
18899;SDS011;9582;52.018;6.306;2023-11-19T09:10:31;15.27;;;3.83;;
18899;SDS011;9582;52.018;6.306;2023-11-19T09:12:58;24.88;;;4.88;;
18899;SDS011;9582;52.018;6.306;2023-11-19T09:15:24;29.13;;;6.22;;
18899;SDS011;9582;52.018;6.306;2023-11-19T09:17:51;20.92;;;4.43;;
18899;SDS011;9582;52.018;6.306;2023-11-19T09:20:19;22.35;;;4.43;;
18899;SDS011;9582;52.018;6.306;2023-11-19T09:22:45;27.65;;;4.45;;
18899;SDS011;9582;52.018;6.306;2023-11-19T09:25:12;20.52;;;4.32;;
18899;SDS011;9582;52.018;6.306;2023-11-19T09:27:41;20.27;;;4.72;;
18899;SDS011;9582;52.018;6.306;2023-11-19T09:30:08;27.73;;;5.88;;
18899;SDS011;9582;52.018;6.306;2023-11-19T09:32:35;18.77;;;4.03;;
18899;SDS011;9582;52.018;6.306;2023-11-19T09:35:03;16.02;;;3.88;;
18899;SDS011;9582;52.018;6.306;2023-11-19T09:37:31;30.80;;;4.88;;
18899;SDS011;9582;52.018;6.306;2023-11-19T09:39:58;21.92;;;4.40;;
18899;SDS011;9582;52.018;6.306;2023-11-19T09:42:24;23.27;;;4.72;;
18899;SDS011;9582;52.018;6.306;2023-11-19T09:44:51;18.52;;;4.47;;
18899;SDS011;9582;52.018;6.306;2023-11-19T09:47:20;21.02;;;4.22;;
18899;SDS011;9582;52.018;6.306;2023-11-19T09:49:48;14.65;;;3.40;;
18899;SDS011;9582;52.018;6.306;2023-11-19T09:52:15;19.95;;;4.10;;
18899;SDS011;9582;52.018;6.306;2023-11-19T09:54:43;21.42;;;5.03;;
18899;SDS011;9582;52.018;6.306;2023-11-19T09:57:10;23.52;;;4.70;;
18899;SDS011;9582;52.018;6.306;2023-11-19T09:59:39;22.80;;;4.38;;
18899;SDS011;9582;52.018;6.306;2023-11-19T10:02:07;13.98;;;2.90;;
18899;SDS011;9582;52.018;6.306;2023-11-19T10:04:33;23.88;;;4.97;;
18899;SDS011;9582;52.018;6.306;2023-11-19T10:07:02;25.63;;;4.53;;
18899;SDS011;9582;52.018;6.306;2023-11-19T10:09:29;21.38;;;3.72;;
18899;SDS011;9582;52.018;6.306;2023-11-19T10:11:57;22.17;;;4.25;;
18899;SDS011;9582;52.018;6.306;2023-11-19T10:14:23;21.42;;;4.22;;
18899;SDS011;9582;52.018;6.306;2023-11-19T10:16:50;20.23;;;4.32;;
18899;SDS011;9582;52.018;6.306;2023-11-19T10:19:18;18.30;;;4.35;;
18899;SDS011;9582;52.018;6.306;2023-11-19T10:21:46;16.45;;;3.70;;
18899;SDS011;9582;52.018;6.306;2023-11-19T10:24:13;18.45;;;4.28;;
18899;SDS011;9582;52.018;6.306;2023-11-19T10:26:39;24.65;;;5.00;;
18899;SDS011;9582;52.018;6.306;2023-11-19T10:29:08;15.63;;;3.92;;
18899;SDS011;9582;52.018;6.306;2023-11-19T10:31:35;16.70;;;3.33;;
18899;SDS011;9582;52.018;6.306;2023-11-19T10:34:01;18.02;;;3.88;;
18899;SDS011;9582;52.018;6.306;2023-11-19T10:36:38;24.90;;;4.88;;
18899;SDS011;9582;52.018;6.306;2023-11-19T10:39:07;15.75;;;3.15;;
18899;SDS011;9582;52.018;6.306;2023-11-19T10:41:34;19.45;;;4.03;;
18899;SDS011;9582;52.018;6.306;2023-11-19T10:44:00;29.52;;;5.35;;
18899;SDS011;9582;52.018;6.306;2023-11-19T10:46:38;22.75;;;4.28;;
18899;SDS011;9582;52.018;6.306;2023-11-19T10:49:05;25.20;;;6.78;;
18899;SDS011;9582;52.018;6.306;2023-11-19T10:51:32;23.05;;;4.68;;
18899;SDS011;9582;52.018;6.306;2023-11-19T10:54:00;22.85;;;3.53;;
18899;SDS011;9582;52.018;6.306;2023-11-19T10:56:30;21.33;;;5.30;;
18899;SDS011;9582;52.018;6.306;2023-11-19T10:58:59;18.25;;;3.83;;
18899;SDS011;9582;52.018;6.306;2023-11-19T11:01:26;20.67;;;5.05;;
18899;SDS011;9582;52.018;6.306;2023-11-19T11:04:00;17.05;;;3.65;;
18899;SDS011;9582;52.018;6.306;2023-11-19T11:06:28;20.73;;;3.65;;
18899;SDS011;9582;52.018;6.306;2023-11-19T11:08:56;18.20;;;3.80;;
18899;SDS011;9582;52.018;6.306;2023-11-19T11:11:23;24.20;;;5.25;;
18899;SDS011;9582;52.018;6.306;2023-11-19T11:13:51;19.42;;;4.18;;
18899;SDS011;9582;52.018;6.306;2023-11-19T11:16:20;18.45;;;4.10;;
18899;SDS011;9582;52.018;6.306;2023-11-19T11:18:50;18.20;;;4.88;;
18899;SDS011;9582;52.018;6.306;2023-11-19T11:21:21;22.52;;;4.82;;
18899;SDS011;9582;52.018;6.306;2023-11-19T11:23:57;18.90;;;3.80;;
18899;SDS011;9582;52.018;6.306;2023-11-19T11:26:45;24.92;;;4.30;;
18899;SDS011;9582;52.018;6.306;2023-11-19T11:29:26;17.95;;;4.05;;
18899;SDS011;9582;52.018;6.306;2023-11-19T11:32:04;22.52;;;4.68;;
18899;SDS011;9582;52.018;6.306;2023-11-19T11:34:46;18.85;;;3.58;;
18899;SDS011;9582;52.018;6.306;2023-11-19T11:37:28;16.30;;;3.67;;
18899;SDS011;9582;52.018;6.306;2023-11-19T11:39:58;29.88;;;5.43;;
18899;SDS011;9582;52.018;6.306;2023-11-19T11:42:30;21.08;;;4.78;;
18899;SDS011;9582;52.018;6.306;2023-11-19T11:45:01;17.83;;;4.72;;
18899;SDS011;9582;52.018;6.306;2023-11-19T11:50:31;21.83;;;5.30;;
18899;SDS011;9582;52.018;6.306;2023-11-19T11:53:17;20.92;;;4.22;;
18899;SDS011;9582;52.018;6.306;2023-11-19T11:56:00;27.58;;;4.45;;
18899;SDS011;9582;52.018;6.306;2023-11-19T11:58:31;16.75;;;3.97;;
18899;SDS011;9582;52.018;6.306;2023-11-19T12:01:01;20.83;;;3.72;;
18899;SDS011;9582;52.018;6.306;2023-11-19T12:03:32;18.17;;;3.83;;
18899;SDS011;9582;52.018;6.306;2023-11-19T12:05:59;20.95;;;4.65;;
18899;SDS011;9582;52.018;6.306;2023-11-19T12:08:28;11.80;;;3.00;;
18899;SDS011;9582;52.018;6.306;2023-11-19T12:10:56;19.60;;;3.70;;
18899;SDS011;9582;52.018;6.306;2023-11-19T12:13:47;16.52;;;2.90;;
18899;SDS011;9582;52.018;6.306;2023-11-19T12:16:20;21.35;;;5.75;;
18899;SDS011;9582;52.018;6.306;2023-11-19T12:18:47;16.80;;;4.50;;
18899;SDS011;9582;52.018;6.306;2023-11-19T12:21:27;20.45;;;4.35;;
18899;SDS011;9582;52.018;6.306;2023-11-19T12:23:56;20.27;;;3.97;;
18899;SDS011;9582;52.018;6.306;2023-11-19T12:26:33;19.27;;;4.05;;
18899;SDS011;9582;52.018;6.306;2023-11-19T12:29:00;19.75;;;4.50;;
18899;SDS011;9582;52.018;6.306;2023-11-19T12:31:29;16.17;;;3.88;;
18899;SDS011;9582;52.018;6.306;2023-11-19T12:33:55;18.65;;;4.28;;
18899;SDS011;9582;52.018;6.306;2023-11-19T12:36:22;15.77;;;3.50;;
18899;SDS011;9582;52.018;6.306;2023-11-19T12:38:49;21.15;;;3.40;;
18899;SDS011;9582;52.018;6.306;2023-11-19T12:41:17;19.67;;;4.75;;
18899;SDS011;9582;52.018;6.306;2023-11-19T12:43:47;16.88;;;4.07;;
18899;SDS011;9582;52.018;6.306;2023-11-19T12:46:17;24.67;;;4.30;;
18899;SDS011;9582;52.018;6.306;2023-11-19T12:48:44;16.08;;;2.88;;
18899;SDS011;9582;52.018;6.306;2023-11-19T12:51:11;11.60;;;2.97;;
18899;SDS011;9582;52.018;6.306;2023-11-19T12:53:47;10.40;;;2.88;;
18899;SDS011;9582;52.018;6.306;2023-11-19T12:56:14;10.35;;;2.70;;
18899;SDS011;9582;52.018;6.306;2023-11-19T12:58:43;14.43;;;2.90;;
18899;SDS011;9582;52.018;6.306;2023-11-19T13:01:10;14.30;;;3.30;;
18899;SDS011;9582;52.018;6.306;2023-11-19T13:03:42;16.23;;;3.60;;
18899;SDS011;9582;52.018;6.306;2023-11-19T13:06:09;12.63;;;2.88;;
18899;SDS011;9582;52.018;6.306;2023-11-19T13:08:37;11.35;;;2.78;;
18899;SDS011;9582;52.018;6.306;2023-11-19T13:11:04;11.07;;;2.53;;
18899;SDS011;9582;52.018;6.306;2023-11-19T13:13:32;12.63;;;4.03;;
18899;SDS011;9582;52.018;6.306;2023-11-19T13:16:05;9.85;;;2.58;;
18899;SDS011;9582;52.018;6.306;2023-11-19T13:18:33;10.88;;;3.00;;
18899;SDS011;9582;52.018;6.306;2023-11-19T13:21:01;9.73;;;2.10;;
18899;SDS011;9582;52.018;6.306;2023-11-19T13:23:28;4.25;;;1.75;;
18899;SDS011;9582;52.018;6.306;2023-11-19T13:25:55;14.23;;;2.83;;
18899;SDS011;9582;52.018;6.306;2023-11-19T13:28:21;9.95;;;2.70;;
18899;SDS011;9582;52.018;6.306;2023-11-19T13:30:48;11.50;;;3.13;;
18899;SDS011;9582;52.018;6.306;2023-11-19T13:33:16;10.73;;;2.75;;
18899;SDS011;9582;52.018;6.306;2023-11-19T13:35:42;8.80;;;1.92;;
18899;SDS011;9582;52.018;6.306;2023-11-19T13:38:09;15.07;;;3.17;;
18899;SDS011;9582;52.018;6.306;2023-11-19T13:40:35;17.58;;;3.58;;
18899;SDS011;9582;52.018;6.306;2023-11-19T13:43:02;15.25;;;3.40;;
18899;SDS011;9582;52.018;6.306;2023-11-19T13:45:28;22.73;;;4.30;;
18899;SDS011;9582;52.018;6.306;2023-11-19T13:47:55;14.38;;;3.17;;
18899;SDS011;9582;52.018;6.306;2023-11-19T13:50:23;17.98;;;4.30;;
18899;SDS011;9582;52.018;6.306;2023-11-19T13:52:49;18.17;;;3.95;;
18899;SDS011;9582;52.018;6.306;2023-11-19T13:55:16;16.05;;;3.55;;
18899;SDS011;9582;52.018;6.306;2023-11-19T13:57:43;13.93;;;3.17;;
18899;SDS011;9582;52.018;6.306;2023-11-19T14:00:10;14.43;;;3.65;;
18899;SDS011;9582;52.018;6.306;2023-11-19T14:02:38;17.48;;;4.10;;
18899;SDS011;9582;52.018;6.306;2023-11-19T14:05:05;18.52;;;4.03;;
18899;SDS011;9582;52.018;6.306;2023-11-19T14:07:33;12.43;;;3.47;;
18899;SDS011;9582;52.018;6.306;2023-11-19T14:10:00;15.65;;;4.07;;
18899;SDS011;9582;52.018;6.306;2023-11-19T14:12:27;20.95;;;4.63;;
18899;SDS011;9582;52.018;6.306;2023-11-19T14:14:53;17.23;;;3.85;;
18899;SDS011;9582;52.018;6.306;2023-11-19T14:17:20;20.85;;;4.88;;
18899;SDS011;9582;52.018;6.306;2023-11-19T14:19:46;20.17;;;4.10;;
18899;SDS011;9582;52.018;6.306;2023-11-19T14:22:13;12.00;;;3.92;;
18899;SDS011;9582;52.018;6.306;2023-11-19T14:24:41;13.98;;;3.83;;
18899;SDS011;9582;52.018;6.306;2023-11-19T14:27:08;14.15;;;3.80;;
18899;SDS011;9582;52.018;6.306;2023-11-19T14:29:34;11.10;;;3.42;;
18899;SDS011;9582;52.018;6.306;2023-11-19T14:32:02;21.38;;;4.07;;
18899;SDS011;9582;52.018;6.306;2023-11-19T14:34:29;20.15;;;4.60;;
18899;SDS011;9582;52.018;6.306;2023-11-19T14:36:55;11.18;;;3.30;;
18899;SDS011;9582;52.018;6.306;2023-11-19T14:39:22;14.90;;;3.60;;
18899;SDS011;9582;52.018;6.306;2023-11-19T14:41:50;12.07;;;3.38;;
18899;SDS011;9582;52.018;6.306;2023-11-19T14:44:17;17.80;;;3.65;;
18899;SDS011;9582;52.018;6.306;2023-11-19T14:46:45;16.70;;;3.47;;
18899;SDS011;9582;52.018;6.306;2023-11-19T14:49:12;19.92;;;4.60;;
18899;SDS011;9582;52.018;6.306;2023-11-19T14:51:39;14.52;;;3.97;;